sensor_id;sensor_type;location;lat;lon;timestamp;temperature;humidity
43697;DHT22;29301;47.620;19.560;2022-08-03T00:01:32;23.00;91.80
43697;DHT22;29301;47.620;19.560;2022-08-03T00:03:58;23.00;91.90
43697;DHT22;29301;47.620;19.560;2022-08-03T00:06:24;22.90;92.00
43697;DHT22;29301;47.620;19.560;2022-08-03T00:08:50;22.80;91.90
43697;DHT22;29301;47.620;19.560;2022-08-03T00:11:15;22.80;91.80
43697;DHT22;29301;47.620;19.560;2022-08-03T00:13:41;22.80;91.70
43697;DHT22;29301;47.620;19.560;2022-08-03T00:16:07;22.80;92.00
43697;DHT22;29301;47.620;19.560;2022-08-03T00:18:33;22.80;92.20
43697;DHT22;29301;47.620;19.560;2022-08-03T00:20:59;22.80;92.00
43697;DHT22;29301;47.620;19.560;2022-08-03T00:23:24;22.90;92.20
43697;DHT22;29301;47.620;19.560;2022-08-03T00:25:50;22.90;92.50
43697;DHT22;29301;47.620;19.560;2022-08-03T00:28:16;22.80;92.40
43697;DHT22;29301;47.620;19.560;2022-08-03T00:30:41;22.80;92.00
43697;DHT22;29301;47.620;19.560;2022-08-03T00:33:07;22.90;91.70
43697;DHT22;29301;47.620;19.560;2022-08-03T00:35:34;22.90;91.30
43697;DHT22;29301;47.620;19.560;2022-08-03T00:38:00;22.90;91.00
43697;DHT22;29301;47.620;19.560;2022-08-03T00:40:26;22.80;91.20
43697;DHT22;29301;47.620;19.560;2022-08-03T00:42:54;22.80;91.30
43697;DHT22;29301;47.620;19.560;2022-08-03T00:45:22;22.70;91.90
43697;DHT22;29301;47.620;19.560;2022-08-03T00:47:49;22.70;92.30
43697;DHT22;29301;47.620;19.560;2022-08-03T00:50:15;22.60;92.80
43697;DHT22;29301;47.620;19.560;2022-08-03T00:52:41;22.60;93.00
43697;DHT22;29301;47.620;19.560;2022-08-03T00:55:08;22.50;92.90
43697;DHT22;29301;47.620;19.560;2022-08-03T00:57:34;22.50;92.80
43697;DHT22;29301;47.620;19.560;2022-08-03T01:00:00;22.50;93.30
43697;DHT22;29301;47.620;19.560;2022-08-03T01:02:27;22.40;93.30
43697;DHT22;29301;47.620;19.560;2022-08-03T01:04:53;22.40;93.50
43697;DHT22;29301;47.620;19.560;2022-08-03T01:07:36;22.40;93.60
43697;DHT22;29301;47.620;19.560;2022-08-03T01:10:31;22.30;93.40
43697;DHT22;29301;47.620;19.560;2022-08-03T01:13:08;22.30;93.50
43697;DHT22;29301;47.620;19.560;2022-08-03T01:15:48;22.30;94.20
43697;DHT22;29301;47.620;19.560;2022-08-03T01:18:26;21.90;94.60
43697;DHT22;29301;47.620;19.560;2022-08-03T01:20:56;21.90;95.20
43697;DHT22;29301;47.620;19.560;2022-08-03T01:31:41;22.00;94.90
43697;DHT22;29301;47.620;19.560;2022-08-03T01:34:10;22.00;94.90
43697;DHT22;29301;47.620;19.560;2022-08-03T01:36:42;21.90;95.10
43697;DHT22;29301;47.620;19.560;2022-08-03T01:39:09;21.90;95.30
43697;DHT22;29301;47.620;19.560;2022-08-03T01:41:48;21.80;95.40
43697;DHT22;29301;47.620;19.560;2022-08-03T01:44:15;21.80;95.50
43697;DHT22;29301;47.620;19.560;2022-08-03T01:46:42;21.70;95.20
43697;DHT22;29301;47.620;19.560;2022-08-03T01:49:10;21.70;95.90
43697;DHT22;29301;47.620;19.560;2022-08-03T01:51:38;21.60;96.50
43697;DHT22;29301;47.620;19.560;2022-08-03T01:54:08;21.40;96.90
43697;DHT22;29301;47.620;19.560;2022-08-03T01:56:36;21.20;97.10
43697;DHT22;29301;47.620;19.560;2022-08-03T01:59:03;21.20;97.40
43697;DHT22;29301;47.620;19.560;2022-08-03T02:01:30;21.30;97.00
43697;DHT22;29301;47.620;19.560;2022-08-03T02:03:58;21.50;96.70
43697;DHT22;29301;47.620;19.560;2022-08-03T02:06:25;21.50;96.20
43697;DHT22;29301;47.620;19.560;2022-08-03T02:08:52;21.60;96.20
43697;DHT22;29301;47.620;19.560;2022-08-03T02:11:20;21.60;96.10
43697;DHT22;29301;47.620;19.560;2022-08-03T02:13:46;21.60;96.20
43697;DHT22;29301;47.620;19.560;2022-08-03T02:16:13;21.50;96.40
43697;DHT22;29301;47.620;19.560;2022-08-03T02:18:40;21.50;96.70
43697;DHT22;29301;47.620;19.560;2022-08-03T02:21:08;21.50;96.60
43697;DHT22;29301;47.620;19.560;2022-08-03T02:23:36;21.50;96.60
43697;DHT22;29301;47.620;19.560;2022-08-03T02:26:04;21.40;96.40
43697;DHT22;29301;47.620;19.560;2022-08-03T02:28:34;21.40;96.50
43697;DHT22;29301;47.620;19.560;2022-08-03T02:31:03;21.40;96.80
43697;DHT22;29301;47.620;19.560;2022-08-03T02:33:33;21.40;97.00
43697;DHT22;29301;47.620;19.560;2022-08-03T02:36:01;21.30;97.30
43697;DHT22;29301;47.620;19.560;2022-08-03T02:38:31;21.20;97.60
43697;DHT22;29301;47.620;19.560;2022-08-03T02:40:58;21.20;97.60
43697;DHT22;29301;47.620;19.560;2022-08-03T02:43:25;21.20;97.80
43697;DHT22;29301;47.620;19.560;2022-08-03T02:45:53;21.20;98.00
43697;DHT22;29301;47.620;19.560;2022-08-03T02:48:28;21.10;98.20
43697;DHT22;29301;47.620;19.560;2022-08-03T02:50:57;21.10;98.40
43697;DHT22;29301;47.620;19.560;2022-08-03T02:53:25;21.10;98.60
43697;DHT22;29301;47.620;19.560;2022-08-03T02:55:52;21.10;98.70
43697;DHT22;29301;47.620;19.560;2022-08-03T02:58:20;21.10;98.70
43697;DHT22;29301;47.620;19.560;2022-08-03T03:00:49;21.10;98.30
43697;DHT22;29301;47.620;19.560;2022-08-03T03:03:16;21.10;98.10
43697;DHT22;29301;47.620;19.560;2022-08-03T03:05:42;21.10;98.20
43697;DHT22;29301;47.620;19.560;2022-08-03T03:08:12;21.10;98.20
43697;DHT22;29301;47.620;19.560;2022-08-03T03:10:39;21.00;98.40
43697;DHT22;29301;47.620;19.560;2022-08-03T03:13:06;21.00;98.60
43697;DHT22;29301;47.620;19.560;2022-08-03T03:15:34;21.00;98.40
43697;DHT22;29301;47.620;19.560;2022-08-03T03:18:02;20.90;98.30
43697;DHT22;29301;47.620;19.560;2022-08-03T03:20:28;21.00;98.40
43697;DHT22;29301;47.620;19.560;2022-08-03T03:22:55;20.90;98.20
43697;DHT22;29301;47.620;19.560;2022-08-03T03:25:20;21.00;98.20
43697;DHT22;29301;47.620;19.560;2022-08-03T03:27:47;21.00;98.20
43697;DHT22;29301;47.620;19.560;2022-08-03T03:30:13;21.00;98.20
43697;DHT22;29301;47.620;19.560;2022-08-03T03:32:39;20.90;98.20
43697;DHT22;29301;47.620;19.560;2022-08-03T03:35:06;20.90;98.10
43697;DHT22;29301;47.620;19.560;2022-08-03T03:37:32;20.90;98.20
43697;DHT22;29301;47.620;19.560;2022-08-03T03:39:58;20.90;98.20
43697;DHT22;29301;47.620;19.560;2022-08-03T03:42:24;20.90;98.30
43697;DHT22;29301;47.620;19.560;2022-08-03T03:44:50;20.90;98.30
43697;DHT22;29301;47.620;19.560;2022-08-03T03:47:16;20.90;98.20
43697;DHT22;29301;47.620;19.560;2022-08-03T03:49:42;20.90;98.20
43697;DHT22;29301;47.620;19.560;2022-08-03T03:52:09;20.90;98.40
43697;DHT22;29301;47.620;19.560;2022-08-03T03:54:44;20.90;98.30
43697;DHT22;29301;47.620;19.560;2022-08-03T03:57:10;20.90;98.30
43697;DHT22;29301;47.620;19.560;2022-08-03T03:59:37;20.90;98.40
43697;DHT22;29301;47.620;19.560;2022-08-03T04:02:05;20.90;98.30
43697;DHT22;29301;47.620;19.560;2022-08-03T04:04:32;20.90;98.30
43697;DHT22;29301;47.620;19.560;2022-08-03T04:07:17;20.90;98.20
43697;DHT22;29301;47.620;19.560;2022-08-03T04:10:02;20.90;98.30
43697;DHT22;29301;47.620;19.560;2022-08-03T04:12:50;20.90;98.50
43697;DHT22;29301;47.620;19.560;2022-08-03T04:15:22;20.90;98.70
43697;DHT22;29301;47.620;19.560;2022-08-03T04:17:49;20.90;98.60
43697;DHT22;29301;47.620;19.560;2022-08-03T04:20:19;20.90;98.50
43697;DHT22;29301;47.620;19.560;2022-08-03T04:22:48;20.90;98.50
43697;DHT22;29301;47.620;19.560;2022-08-03T04:25:17;20.90;98.30
43697;DHT22;29301;47.620;19.560;2022-08-03T04:27:45;21.00;98.10
43697;DHT22;29301;47.620;19.560;2022-08-03T04:30:13;21.00;98.10
43697;DHT22;29301;47.620;19.560;2022-08-03T04:32:40;21.00;98.40
43697;DHT22;29301;47.620;19.560;2022-08-03T04:35:08;21.00;98.40
43697;DHT22;29301;47.620;19.560;2022-08-03T04:37:50;21.10;98.30
43697;DHT22;29301;47.620;19.560;2022-08-03T04:40:32;21.10;98.20
43697;DHT22;29301;47.620;19.560;2022-08-03T04:42:59;21.10;98.30
43697;DHT22;29301;47.620;19.560;2022-08-03T04:45:29;21.10;98.60
43697;DHT22;29301;47.620;19.560;2022-08-03T04:47:56;21.10;98.80
43697;DHT22;29301;47.620;19.560;2022-08-03T04:50:22;21.10;98.90
43697;DHT22;29301;47.620;19.560;2022-08-03T04:52:49;21.20;98.70
43697;DHT22;29301;47.620;19.560;2022-08-03T04:55:31;21.30;98.70
43697;DHT22;29301;47.620;19.560;2022-08-03T04:58:01;21.30;98.30
43697;DHT22;29301;47.620;19.560;2022-08-03T05:00:28;21.30;98.10
43697;DHT22;29301;47.620;19.560;2022-08-03T05:02:54;21.30;98.10
43697;DHT22;29301;47.620;19.560;2022-08-03T05:05:20;21.30;98.40
43697;DHT22;29301;47.620;19.560;2022-08-03T05:07:46;21.30;98.60
43697;DHT22;29301;47.620;19.560;2022-08-03T05:10:13;21.30;98.80
43697;DHT22;29301;47.620;19.560;2022-08-03T05:12:39;21.30;99.10
43697;DHT22;29301;47.620;19.560;2022-08-03T05:15:05;21.30;99.30
43697;DHT22;29301;47.620;19.560;2022-08-03T05:17:31;21.30;99.40
43697;DHT22;29301;47.620;19.560;2022-08-03T05:20:01;21.40;99.30
43697;DHT22;29301;47.620;19.560;2022-08-03T05:22:28;21.40;99.30
43697;DHT22;29301;47.620;19.560;2022-08-03T05:24:54;21.40;99.20
43697;DHT22;29301;47.620;19.560;2022-08-03T05:27:20;21.40;99.30
43697;DHT22;29301;47.620;19.560;2022-08-03T05:29:47;21.40;99.10
43697;DHT22;29301;47.620;19.560;2022-08-03T05:32:13;21.40;99.00
43697;DHT22;29301;47.620;19.560;2022-08-03T05:34:38;21.40;99.00
43697;DHT22;29301;47.620;19.560;2022-08-03T05:37:04;21.50;98.70
43697;DHT22;29301;47.620;19.560;2022-08-03T05:39:31;21.40;98.90
43697;DHT22;29301;47.620;19.560;2022-08-03T05:41:57;21.50;98.90
43697;DHT22;29301;47.620;19.560;2022-08-03T05:44:23;21.60;98.80
43697;DHT22;29301;47.620;19.560;2022-08-03T05:46:50;21.60;98.70
43697;DHT22;29301;47.620;19.560;2022-08-03T05:49:16;21.70;98.40
43697;DHT22;29301;47.620;19.560;2022-08-03T05:51:42;21.70;98.30
43697;DHT22;29301;47.620;19.560;2022-08-03T05:54:08;21.80;98.30
43697;DHT22;29301;47.620;19.560;2022-08-03T05:56:33;21.90;98.10
43697;DHT22;29301;47.620;19.560;2022-08-03T05:58:59;21.90;98.00
43697;DHT22;29301;47.620;19.560;2022-08-03T06:01:25;22.00;97.90
43697;DHT22;29301;47.620;19.560;2022-08-03T06:03:50;22.00;97.70
43697;DHT22;29301;47.620;19.560;2022-08-03T06:06:17;22.00;97.80
43697;DHT22;29301;47.620;19.560;2022-08-03T06:08:43;22.00;97.80
43697;DHT22;29301;47.620;19.560;2022-08-03T06:11:10;22.10;98.10
43697;DHT22;29301;47.620;19.560;2022-08-03T06:13:36;22.20;98.10
43697;DHT22;29301;47.620;19.560;2022-08-03T06:16:02;22.20;98.10
43697;DHT22;29301;47.620;19.560;2022-08-03T06:18:28;22.30;98.10
43697;DHT22;29301;47.620;19.560;2022-08-03T06:20:54;22.40;97.70
43697;DHT22;29301;47.620;19.560;2022-08-03T06:23:20;22.50;97.60
43697;DHT22;29301;47.620;19.560;2022-08-03T06:25:46;22.60;97.40
43697;DHT22;29301;47.620;19.560;2022-08-03T06:28:12;22.70;97.10
43697;DHT22;29301;47.620;19.560;2022-08-03T06:30:43;22.80;96.60
43697;DHT22;29301;47.620;19.560;2022-08-03T06:33:08;22.90;96.10
43697;DHT22;29301;47.620;19.560;2022-08-03T06:35:34;23.00;96.10
43697;DHT22;29301;47.620;19.560;2022-08-03T06:38:00;23.10;96.20
43697;DHT22;29301;47.620;19.560;2022-08-03T06:40:25;23.20;96.00
43697;DHT22;29301;47.620;19.560;2022-08-03T06:43:00;23.20;96.00
43697;DHT22;29301;47.620;19.560;2022-08-03T06:45:27;23.30;96.40
43697;DHT22;29301;47.620;19.560;2022-08-03T06:48:10;23.30;95.80
43697;DHT22;29301;47.620;19.560;2022-08-03T06:50:38;23.50;95.20
43697;DHT22;29301;47.620;19.560;2022-08-03T06:53:04;23.50;94.80
43697;DHT22;29301;47.620;19.560;2022-08-03T06:55:31;23.60;94.70
43697;DHT22;29301;47.620;19.560;2022-08-03T06:57:57;23.70;94.40
43697;DHT22;29301;47.620;19.560;2022-08-03T07:00:23;23.70;94.10
43697;DHT22;29301;47.620;19.560;2022-08-03T07:02:49;23.90;93.90
43697;DHT22;29301;47.620;19.560;2022-08-03T07:05:15;23.90;94.10
43697;DHT22;29301;47.620;19.560;2022-08-03T07:07:41;23.90;93.50
43697;DHT22;29301;47.620;19.560;2022-08-03T07:10:07;24.00;93.70
43697;DHT22;29301;47.620;19.560;2022-08-03T07:12:33;24.00;93.60
43697;DHT22;29301;47.620;19.560;2022-08-03T07:15:00;24.10;93.80
43697;DHT22;29301;47.620;19.560;2022-08-03T07:17:30;24.10;93.60
43697;DHT22;29301;47.620;19.560;2022-08-03T07:19:57;24.10;93.70
43697;DHT22;29301;47.620;19.560;2022-08-03T07:22:24;24.20;93.10
43697;DHT22;29301;47.620;19.560;2022-08-03T07:24:49;24.30;93.00
43697;DHT22;29301;47.620;19.560;2022-08-03T07:27:15;24.30;93.50
43697;DHT22;29301;47.620;19.560;2022-08-03T07:29:41;24.40;93.20
43697;DHT22;29301;47.620;19.560;2022-08-03T07:32:07;24.50;92.50
43697;DHT22;29301;47.620;19.560;2022-08-03T07:34:33;24.50;92.10
43697;DHT22;29301;47.620;19.560;2022-08-03T07:36:58;24.50;92.00
43697;DHT22;29301;47.620;19.560;2022-08-03T07:39:24;24.60;91.40
43697;DHT22;29301;47.620;19.560;2022-08-03T07:41:50;24.70;90.90
43697;DHT22;29301;47.620;19.560;2022-08-03T07:44:19;24.70;91.00
43697;DHT22;29301;47.620;19.560;2022-08-03T07:46:45;24.80;90.40
43697;DHT22;29301;47.620;19.560;2022-08-03T07:49:10;24.70;90.00
43697;DHT22;29301;47.620;19.560;2022-08-03T07:51:36;24.80;90.50
43697;DHT22;29301;47.620;19.560;2022-08-03T07:54:02;24.80;90.30
43697;DHT22;29301;47.620;19.560;2022-08-03T07:56:28;25.00;89.30
43697;DHT22;29301;47.620;19.560;2022-08-03T07:58:54;25.00;84.60
43697;DHT22;29301;47.620;19.560;2022-08-03T08:01:20;25.10;84.10
43697;DHT22;29301;47.620;19.560;2022-08-03T08:03:47;25.20;84.60
43697;DHT22;29301;47.620;19.560;2022-08-03T08:06:13;25.20;82.60
43697;DHT22;29301;47.620;19.560;2022-08-03T08:08:39;25.30;83.00
43697;DHT22;29301;47.620;19.560;2022-08-03T08:11:05;25.40;81.80
43697;DHT22;29301;47.620;19.560;2022-08-03T08:13:32;25.40;81.40
43697;DHT22;29301;47.620;19.560;2022-08-03T08:15:58;25.50;81.20
43697;DHT22;29301;47.620;19.560;2022-08-03T08:18:23;25.50;80.40
43697;DHT22;29301;47.620;19.560;2022-08-03T08:20:49;25.50;80.10
43697;DHT22;29301;47.620;19.560;2022-08-03T08:23:15;25.50;80.20
43697;DHT22;29301;47.620;19.560;2022-08-03T08:25:47;25.60;79.20
43697;DHT22;29301;47.620;19.560;2022-08-03T08:28:13;25.60;80.00
43697;DHT22;29301;47.620;19.560;2022-08-03T08:30:39;25.70;80.20
43697;DHT22;29301;47.620;19.560;2022-08-03T08:33:05;25.70;78.90
43697;DHT22;29301;47.620;19.560;2022-08-03T08:35:30;25.70;79.70
43697;DHT22;29301;47.620;19.560;2022-08-03T08:37:58;25.80;79.80
43697;DHT22;29301;47.620;19.560;2022-08-03T08:40:25;25.90;78.50
43697;DHT22;29301;47.620;19.560;2022-08-03T08:42:51;25.90;78.50
43697;DHT22;29301;47.620;19.560;2022-08-03T08:45:17;26.00;76.80
43697;DHT22;29301;47.620;19.560;2022-08-03T08:47:46;26.10;77.40
43697;DHT22;29301;47.620;19.560;2022-08-03T08:50:13;26.20;75.90
43697;DHT22;29301;47.620;19.560;2022-08-03T08:52:40;26.30;75.70
43697;DHT22;29301;47.620;19.560;2022-08-03T08:55:10;26.40;75.30
43697;DHT22;29301;47.620;19.560;2022-08-03T08:58:05;26.50;74.20
43697;DHT22;29301;47.620;19.560;2022-08-03T09:00:30;26.70;72.90
43697;DHT22;29301;47.620;19.560;2022-08-03T09:02:57;27.00;72.20
43697;DHT22;29301;47.620;19.560;2022-08-03T09:05:23;27.40;70.90
43697;DHT22;29301;47.620;19.560;2022-08-03T09:07:49;27.80;69.60
43697;DHT22;29301;47.620;19.560;2022-08-03T09:10:16;28.20;67.10
43697;DHT22;29301;47.620;19.560;2022-08-03T09:12:49;28.40;65.10
43697;DHT22;29301;47.620;19.560;2022-08-03T09:15:22;28.60;63.80
43697;DHT22;29301;47.620;19.560;2022-08-03T09:17:50;28.80;63.10
43697;DHT22;29301;47.620;19.560;2022-08-03T09:20:15;29.00;61.00
43697;DHT22;29301;47.620;19.560;2022-08-03T09:22:55;29.20;60.70
43697;DHT22;29301;47.620;19.560;2022-08-03T09:25:39;29.20;59.50
43697;DHT22;29301;47.620;19.560;2022-08-03T09:28:10;29.20;60.10
43697;DHT22;29301;47.620;19.560;2022-08-03T09:30:41;29.20;59.60
43697;DHT22;29301;47.620;19.560;2022-08-03T09:33:11;29.40;59.50
43697;DHT22;29301;47.620;19.560;2022-08-03T09:35:45;29.70;58.60
43697;DHT22;29301;47.620;19.560;2022-08-03T09:40:38;30.30;56.40
43697;DHT22;29301;47.620;19.560;2022-08-03T09:43:05;30.20;56.50
43697;DHT22;29301;47.620;19.560;2022-08-03T09:45:33;30.40;56.40
43697;DHT22;29301;47.620;19.560;2022-08-03T09:50:52;31.00;54.80
43697;DHT22;29301;47.620;19.560;2022-08-03T09:53:18;30.90;54.60
43697;DHT22;29301;47.620;19.560;2022-08-03T09:55:55;30.90;54.70
43697;DHT22;29301;47.620;19.560;2022-08-03T09:58:22;31.30;55.00
43697;DHT22;29301;47.620;19.560;2022-08-03T10:03:23;31.80;53.80
43697;DHT22;29301;47.620;19.560;2022-08-03T10:05:49;31.90;53.20
43697;DHT22;29301;47.620;19.560;2022-08-03T10:08:17;32.10;53.00
43697;DHT22;29301;47.620;19.560;2022-08-03T10:10:46;32.00;52.30
43697;DHT22;29301;47.620;19.560;2022-08-03T10:13:16;32.00;52.60
43697;DHT22;29301;47.620;19.560;2022-08-03T10:15:42;32.00;52.20
43697;DHT22;29301;47.620;19.560;2022-08-03T10:18:08;32.10;52.10
43697;DHT22;29301;47.620;19.560;2022-08-03T10:20:47;32.20;51.60
43697;DHT22;29301;47.620;19.560;2022-08-03T10:23:15;32.00;51.90
43697;DHT22;29301;47.620;19.560;2022-08-03T10:25:44;31.80;52.10
43697;DHT22;29301;47.620;19.560;2022-08-03T10:28:15;31.90;52.40
43697;DHT22;29301;47.620;19.560;2022-08-03T10:30:46;32.00;52.10
43697;DHT22;29301;47.620;19.560;2022-08-03T10:33:19;32.20;51.20
43697;DHT22;29301;47.620;19.560;2022-08-03T10:35:46;32.30;51.00
43697;DHT22;29301;47.620;19.560;2022-08-03T10:38:20;32.40;50.90
43697;DHT22;29301;47.620;19.560;2022-08-03T10:40:49;32.50;50.80
43697;DHT22;29301;47.620;19.560;2022-08-03T10:43:27;32.40;50.70
43697;DHT22;29301;47.620;19.560;2022-08-03T10:45:55;32.40;50.80
43697;DHT22;29301;47.620;19.560;2022-08-03T10:48:21;32.40;50.10
43697;DHT22;29301;47.620;19.560;2022-08-03T10:50:48;32.30;50.10
43697;DHT22;29301;47.620;19.560;2022-08-03T10:53:14;32.40;50.50
43697;DHT22;29301;47.620;19.560;2022-08-03T10:55:42;32.50;50.00
43697;DHT22;29301;47.620;19.560;2022-08-03T11:01:07;31.10;51.00
43697;DHT22;29301;47.620;19.560;2022-08-03T11:03:33;30.90;51.40
43697;DHT22;29301;47.620;19.560;2022-08-03T11:06:19;30.80;52.30
43697;DHT22;29301;47.620;19.560;2022-08-03T11:08:47;31.20;52.30
43697;DHT22;29301;47.620;19.560;2022-08-03T11:17:05;32.40;51.10
43697;DHT22;29301;47.620;19.560;2022-08-03T11:19:51;32.60;50.60
43697;DHT22;29301;47.620;19.560;2022-08-03T11:22:18;32.90;49.60
43697;DHT22;29301;47.620;19.560;2022-08-03T11:27:29;32.70;50.20
43697;DHT22;29301;47.620;19.560;2022-08-03T11:30:06;32.30;49.90
43697;DHT22;29301;47.620;19.560;2022-08-03T11:40:43;32.50;49.80
43697;DHT22;29301;47.620;19.560;2022-08-03T11:46:06;33.00;48.60
43697;DHT22;29301;47.620;19.560;2022-08-03T11:48:39;33.10;48.10
43697;DHT22;29301;47.620;19.560;2022-08-03T11:51:21;33.20;47.50
43697;DHT22;29301;47.620;19.560;2022-08-03T11:53:58;33.00;47.90
43697;DHT22;29301;47.620;19.560;2022-08-03T11:56:25;33.10;48.70
43697;DHT22;29301;47.620;19.560;2022-08-03T11:58:54;33.10;48.40
43697;DHT22;29301;47.620;19.560;2022-08-03T12:01:21;33.10;48.10
43697;DHT22;29301;47.620;19.560;2022-08-03T12:03:48;33.00;48.70
43697;DHT22;29301;47.620;19.560;2022-08-03T12:06:15;33.00;48.10
43697;DHT22;29301;47.620;19.560;2022-08-03T12:08:42;33.10;47.50
43697;DHT22;29301;47.620;19.560;2022-08-03T12:11:10;33.10;47.10
43697;DHT22;29301;47.620;19.560;2022-08-03T12:13:37;32.90;46.90
43697;DHT22;29301;47.620;19.560;2022-08-03T12:16:03;32.90;46.70
43697;DHT22;29301;47.620;19.560;2022-08-03T12:18:29;32.90;46.70
43697;DHT22;29301;47.620;19.560;2022-08-03T12:21:11;33.10;46.50
43697;DHT22;29301;47.620;19.560;2022-08-03T12:23:38;33.00;46.20
43697;DHT22;29301;47.620;19.560;2022-08-03T12:26:06;33.00;46.30
43697;DHT22;29301;47.620;19.560;2022-08-03T12:28:33;33.30;46.20
43697;DHT22;29301;47.620;19.560;2022-08-03T12:31:21;33.50;45.80
43697;DHT22;29301;47.620;19.560;2022-08-03T12:34:01;33.60;45.70
43697;DHT22;29301;47.620;19.560;2022-08-03T12:36:33;33.60;44.90
43697;DHT22;29301;47.620;19.560;2022-08-03T12:39:01;33.60;45.20
43697;DHT22;29301;47.620;19.560;2022-08-03T12:41:38;33.60;44.80
43697;DHT22;29301;47.620;19.560;2022-08-03T12:44:06;33.70;44.50
43697;DHT22;29301;47.620;19.560;2022-08-03T12:46:39;33.80;44.50
43697;DHT22;29301;47.620;19.560;2022-08-03T12:49:13;33.90;44.90
43697;DHT22;29301;47.620;19.560;2022-08-03T12:54:19;33.70;44.80
43697;DHT22;29301;47.620;19.560;2022-08-03T12:56:58;33.70;44.70
43697;DHT22;29301;47.620;19.560;2022-08-03T12:59:26;33.70;44.50
43697;DHT22;29301;47.620;19.560;2022-08-03T13:01:52;33.70;44.40
43697;DHT22;29301;47.620;19.560;2022-08-03T13:04:32;33.60;45.10
43697;DHT22;29301;47.620;19.560;2022-08-03T13:07:08;33.30;45.50
43697;DHT22;29301;47.620;19.560;2022-08-03T13:09:51;33.10;45.80
43697;DHT22;29301;47.620;19.560;2022-08-03T13:12:22;33.10;45.90
43697;DHT22;29301;47.620;19.560;2022-08-03T13:14:50;33.10;45.60
43697;DHT22;29301;47.620;19.560;2022-08-03T13:17:16;33.00;45.40
43697;DHT22;29301;47.620;19.560;2022-08-03T13:19:43;33.10;45.90
43697;DHT22;29301;47.620;19.560;2022-08-03T13:22:15;33.30;45.60
43697;DHT22;29301;47.620;19.560;2022-08-03T13:24:42;33.20;45.10
43697;DHT22;29301;47.620;19.560;2022-08-03T13:27:08;33.10;44.90
43697;DHT22;29301;47.620;19.560;2022-08-03T13:29:34;33.00;45.10
43697;DHT22;29301;47.620;19.560;2022-08-03T13:32:01;33.10;45.10
43697;DHT22;29301;47.620;19.560;2022-08-03T13:34:27;33.10;45.20
43697;DHT22;29301;47.620;19.560;2022-08-03T13:36:53;33.10;44.90
43697;DHT22;29301;47.620;19.560;2022-08-03T13:39:18;33.00;45.10
43697;DHT22;29301;47.620;19.560;2022-08-03T13:41:45;32.90;45.60
43697;DHT22;29301;47.620;19.560;2022-08-03T13:44:11;32.90;45.60
43697;DHT22;29301;47.620;19.560;2022-08-03T13:46:37;32.90;45.20
43697;DHT22;29301;47.620;19.560;2022-08-03T13:49:03;32.90;45.20
43697;DHT22;29301;47.620;19.560;2022-08-03T13:51:28;32.90;45.20
43697;DHT22;29301;47.620;19.560;2022-08-03T13:53:54;32.80;45.10
43697;DHT22;29301;47.620;19.560;2022-08-03T13:56:20;32.60;45.00
43697;DHT22;29301;47.620;19.560;2022-08-03T13:58:46;32.30;45.20
43697;DHT22;29301;47.620;19.560;2022-08-03T14:01:11;32.10;45.60
43697;DHT22;29301;47.620;19.560;2022-08-03T14:03:38;32.30;45.70
43697;DHT22;29301;47.620;19.560;2022-08-03T14:06:04;32.50;45.80
43697;DHT22;29301;47.620;19.560;2022-08-03T14:08:29;32.80;45.70
43697;DHT22;29301;47.620;19.560;2022-08-03T14:10:55;33.00;45.30
43697;DHT22;29301;47.620;19.560;2022-08-03T14:13:21;33.20;44.90
43697;DHT22;29301;47.620;19.560;2022-08-03T14:15:47;33.30;45.00
43697;DHT22;29301;47.620;19.560;2022-08-03T14:18:13;33.30;44.30
43697;DHT22;29301;47.620;19.560;2022-08-03T14:20:38;33.20;44.50
43697;DHT22;29301;47.620;19.560;2022-08-03T14:23:04;33.20;44.10
43697;DHT22;29301;47.620;19.560;2022-08-03T14:25:31;33.10;44.10
43697;DHT22;29301;47.620;19.560;2022-08-03T14:27:57;32.70;44.50
43697;DHT22;29301;47.620;19.560;2022-08-03T14:30:22;32.40;45.10
43697;DHT22;29301;47.620;19.560;2022-08-03T14:32:48;32.60;45.10
43697;DHT22;29301;47.620;19.560;2022-08-03T14:35:14;32.60;45.30
43697;DHT22;29301;47.620;19.560;2022-08-03T14:37:39;32.80;45.30
43697;DHT22;29301;47.620;19.560;2022-08-03T14:40:05;32.90;44.70
43697;DHT22;29301;47.620;19.560;2022-08-03T14:42:31;33.00;45.30
43697;DHT22;29301;47.620;19.560;2022-08-03T14:44:57;33.10;45.00
43697;DHT22;29301;47.620;19.560;2022-08-03T14:47:23;33.30;44.80
43697;DHT22;29301;47.620;19.560;2022-08-03T14:49:48;33.30;44.70
43697;DHT22;29301;47.620;19.560;2022-08-03T14:52:14;33.20;44.50
43697;DHT22;29301;47.620;19.560;2022-08-03T14:54:40;33.10;44.20
43697;DHT22;29301;47.620;19.560;2022-08-03T14:57:06;33.00;43.70
43697;DHT22;29301;47.620;19.560;2022-08-03T14:59:31;32.90;43.90
43697;DHT22;29301;47.620;19.560;2022-08-03T15:01:57;33.00;44.10
43697;DHT22;29301;47.620;19.560;2022-08-03T15:04:23;33.00;43.60
43697;DHT22;29301;47.620;19.560;2022-08-03T15:06:48;33.00;43.80
43697;DHT22;29301;47.620;19.560;2022-08-03T15:09:14;33.00;43.90
43697;DHT22;29301;47.620;19.560;2022-08-03T15:11:40;32.80;43.60
43697;DHT22;29301;47.620;19.560;2022-08-03T15:14:06;32.80;43.70
43697;DHT22;29301;47.620;19.560;2022-08-03T15:16:32;32.80;43.70
43697;DHT22;29301;47.620;19.560;2022-08-03T15:18:57;32.60;43.60
43697;DHT22;29301;47.620;19.560;2022-08-03T15:21:25;32.50;43.60
43697;DHT22;29301;47.620;19.560;2022-08-03T15:23:51;32.50;43.90
43697;DHT22;29301;47.620;19.560;2022-08-03T15:26:18;32.40;43.80
43697;DHT22;29301;47.620;19.560;2022-08-03T15:28:44;32.50;44.10
43697;DHT22;29301;47.620;19.560;2022-08-03T15:31:09;32.50;44.40
43697;DHT22;29301;47.620;19.560;2022-08-03T15:33:36;32.60;44.40
43697;DHT22;29301;47.620;19.560;2022-08-03T15:36:02;32.50;44.30
43697;DHT22;29301;47.620;19.560;2022-08-03T15:38:28;32.40;44.20
43697;DHT22;29301;47.620;19.560;2022-08-03T15:40:54;32.40;44.60
43697;DHT22;29301;47.620;19.560;2022-08-03T15:43:22;32.40;45.00
43697;DHT22;29301;47.620;19.560;2022-08-03T15:45:48;32.10;45.40
43697;DHT22;29301;47.620;19.560;2022-08-03T15:48:14;32.10;45.30
43697;DHT22;29301;47.620;19.560;2022-08-03T15:50:40;32.20;45.20
43697;DHT22;29301;47.620;19.560;2022-08-03T15:53:09;32.10;45.60
43697;DHT22;29301;47.620;19.560;2022-08-03T15:55:34;32.00;46.00
43697;DHT22;29301;47.620;19.560;2022-08-03T15:58:00;32.00;46.20
43697;DHT22;29301;47.620;19.560;2022-08-03T16:00:26;31.80;46.00
43697;DHT22;29301;47.620;19.560;2022-08-03T16:02:51;31.90;46.00